Time;durP1;ratioP1;P1;durP2;ratioP2;P2;SDS_P1;SDS_P2;PMS_P1;PMS_P2;Temp;Humidity;BMP_temperature;BMP_pressure;BME280_temperature;BME280_humidity;BME280_pressure;Samples;Min_cycle;Max_cycle;Signal;HPM_P1;HPM_P2
2022/05/20 00:02:08;;;;;;;82.10;19.13;;;18.70;99.90;;;;;;6123899;23;20413;-84
2022/05/20 00:04:34;;;;;;;80.80;17.60;;;18.80;99.90;;;;;;6124185;23;20495;-84
2022/05/20 00:06:59;;;;;;;80.97;19.90;;;18.70;99.90;;;;;;6098068;23;20628;-85
2022/05/20 00:09:25;;;;;;;79.57;18.50;;;18.80;99.90;;;;;;6124318;23;20168;-84
2022/05/20 00:11:51;;;;;;;78.70;17.07;;;18.80;99.90;;;;;;6097953;23;20604;-85
2022/05/20 00:14:18;;;;;;;78.97;17.50;;;18.80;99.90;;;;;;6124041;23;20151;-85
2022/05/20 00:16:43;;;;;;;79.27;19.57;;;18.80;99.90;;;;;;6098057;23;20183;-85
2022/05/20 00:19:09;;;;;;;77.47;17.07;;;18.80;99.90;;;;;;6123859;23;20403;-85
2022/05/20 00:21:35;;;;;;;80.80;16.90;;;18.80;99.90;;;;;;6123762;23;20166;-85
2022/05/20 00:24:01;;;;;;;78.90;16.00;;;18.80;99.90;;;;;;6097725;23;20418;-84
2022/05/20 00:26:27;;;;;;;78.13;16.53;;;18.80;99.90;;;;;;6097698;23;20378;-84
2022/05/20 00:28:53;;;;;;;81.77;19.20;;;18.90;99.90;;;;;;6123783;23;20368;-84
2022/05/20 00:31:21;;;;;;;79.10;17.10;;;18.80;99.90;;;;;;6128317;23;20219;-85
2022/05/20 00:33:47;;;;;;;81.37;18.93;;;18.80;99.90;;;;;;6138669;23;20371;-85
2022/05/20 00:36:13;;;;;;;84.20;20.10;;;18.80;99.90;;;;;;6137709;23;20363;-85
2022/05/20 00:38:39;;;;;;;82.00;19.83;;;18.80;99.90;;;;;;6111862;23;20466;-85
2022/05/20 00:41:05;;;;;;;83.93;19.60;;;18.80;99.90;;;;;;6112438;23;20174;-85
2022/05/20 00:43:34;;;;;;;80.60;20.00;;;18.80;99.90;;;;;;6137595;23;20170;-85
2022/05/20 00:46:05;;;;;;;80.90;18.73;;;18.70;99.90;;;;;;6137632;23;20431;-85
2022/05/20 00:48:31;;;;;;;79.37;19.60;;;18.70;99.90;;;;;;6139596;23;20354;-85
2022/05/20 00:51:10;;;;;;;83.10;19.00;;;18.70;99.90;;;;;;6138886;23;20391;-85
2022/05/20 00:53:59;;;;;;;79.60;20.30;;;18.70;99.90;;;;;;6138676;23;20679;-85
2022/05/20 00:56:46;;;;;;;80.20;20.43;;;18.70;99.90;;;;;;6112306;23;20382;-85
2022/05/20 00:59:18;;;;;;;81.87;19.40;;;18.70;99.90;;;;;;6138284;23;20767;-85
2022/05/20 01:01:47;;;;;;;81.10;19.30;;;18.60;99.90;;;;;;6112371;23;20399;-85
2022/05/20 01:04:16;;;;;;;83.23;21.60;;;18.60;99.90;;;;;;6136243;23;20414;-85
2022/05/20 01:06:43;;;;;;;87.13;20.50;;;18.60;99.90;;;;;;6138361;23;20428;-85
2022/05/20 01:09:08;;;;;;;85.77;20.20;;;18.60;99.90;;;;;;6137639;23;20393;-85
2022/05/20 01:11:37;;;;;;;83.80;20.33;;;18.40;99.90;;;;;;6136333;23;20387;-85
2022/05/20 01:14:03;;;;;;;82.50;19.60;;;18.40;99.90;;;;;;6137661;23;20196;-85
2022/05/20 01:16:29;;;;;;;79.87;17.73;;;18.40;99.90;;;;;;6137662;23;20375;-85
2022/05/20 01:18:56;;;;;;;81.97;17.67;;;18.40;99.90;;;;;;6136736;23;20237;-85
2022/05/20 01:21:22;;;;;;;84.80;17.93;;;18.40;99.90;;;;;;6137443;23;20391;-85
2022/05/20 01:23:48;;;;;;;84.00;20.43;;;18.40;99.90;;;;;;6110564;23;20418;-85
2022/05/20 01:26:14;;;;;;;82.33;19.33;;;18.40;99.90;;;;;;6135160;23;20366;-85
2022/05/20 01:28:40;;;;;;;82.70;17.83;;;18.50;99.90;;;;;;6136422;23;20370;-85
2022/05/20 01:31:12;;;;;;;80.40;19.17;;;18.40;99.90;;;;;;6136650;23;20669;-85
2022/05/20 01:33:41;;;;;;;82.13;18.23;;;18.40;99.90;;;;;;6136342;23;20355;-85
2022/05/20 01:36:14;;;;;;;79.17;18.30;;;18.40;99.90;;;;;;6137379;23;20428;-85
2022/05/20 01:38:40;;;;;;;78.50;16.63;;;18.40;99.90;;;;;;6138020;23;20455;-85
2022/05/20 01:41:14;;;;;;;82.73;19.40;;;18.30;99.90;;;;;;6137677;23;20394;-85
2022/05/20 01:44:02;;;;;;;79.70;16.77;;;18.30;99.90;;;;;;6134361;23;20394;-85
2022/05/20 01:46:34;;;;;;;81.80;19.20;;;18.20;99.90;;;;;;6137617;23;20347;-85
2022/05/20 01:49:18;;;;;;;85.30;17.57;;;18.20;99.90;;;;;;6137757;23;20351;-85
2022/05/20 01:52:06;;;;;;;83.17;18.13;;;18.10;99.90;;;;;;6110744;23;20426;-85
2022/05/20 01:54:47;;;;;;;78.60;16.63;;;18.10;99.90;;;;;;6136301;23;20359;-85
2022/05/20 01:57:17;;;;;;;82.40;18.50;;;18.10;99.90;;;;;;6137662;23;20426;-85
2022/05/20 01:59:49;;;;;;;78.77;16.20;;;18.00;99.90;;;;;;6138056;23;20394;-85
2022/05/20 02:02:26;;;;;;;85.10;19.97;;;18.10;99.90;;;;;;6113708;23;20462;-85
2022/05/20 02:05:08;;;;;;;84.33;19.73;;;18.10;99.90;;;;;;6132428;23;20395;-84
2022/05/20 02:07:36;;;;;;;80.03;19.03;;;18.10;99.90;;;;;;6098679;23;20448;-83
2022/05/20 02:10:16;;;;;;;84.63;20.90;;;18.20;99.90;;;;;;6123988;23;20890;-84
2022/05/20 02:12:46;;;;;;;81.13;18.63;;;18.20;99.90;;;;;;6124268;23;20440;-83
2022/05/20 02:15:18;;;;;;;80.97;19.07;;;18.10;99.90;;;;;;6123741;23;20870;-83
2022/05/20 02:17:48;;;;;;;82.13;17.63;;;18.10;99.90;;;;;;6123059;23;20371;-83
2022/05/20 02:20:22;;;;;;;85.13;20.30;;;18.10;99.90;;;;;;6097072;23;20398;-84
2022/05/20 02:23:01;;;;;;;79.17;18.50;;;18.20;99.90;;;;;;6124114;23;20387;-83
2022/05/20 02:25:30;;;;;;;83.03;18.80;;;18.20;99.90;;;;;;6097308;23;20417;-83
2022/05/20 02:28:19;;;;;;;79.87;18.60;;;18.10;99.90;;;;;;6098013;23;20378;-84
2022/05/20 02:30:45;;;;;;;86.80;21.47;;;18.10;99.90;;;;;;6123055;23;20343;-83
2022/05/20 02:33:18;;;;;;;82.07;21.33;;;18.10;99.90;;;;;;6123000;23;20367;-83
2022/05/20 02:35:44;;;;;;;86.80;21.53;;;18.10;99.90;;;;;;6123330;23;20147;-83
2022/05/20 02:38:11;;;;;;;86.53;21.33;;;18.00;99.90;;;;;;6123016;23;20397;-83
2022/05/20 02:40:38;;;;;;;85.97;22.70;;;17.90;99.90;;;;;;6096843;23;20832;-83
2022/05/20 02:43:05;;;;;;;84.53;21.00;;;17.90;99.90;;;;;;6123510;23;20370;-83
2022/05/20 02:45:31;;;;;;;85.10;19.93;;;18.00;99.90;;;;;;6124143;23;20463;-83
2022/05/20 02:47:57;;;;;;;89.10;22.37;;;18.00;99.90;;;;;;6124153;23;20798;-83
2022/05/20 02:50:22;;;;;;;83.00;23.03;;;18.00;99.90;;;;;;6124567;23;20371;-83
2022/05/20 02:52:48;;;;;;;83.87;22.07;;;18.10;99.90;;;;;;6124193;23;20777;-83
2022/05/20 02:55:14;;;;;;;85.80;21.83;;;18.10;99.90;;;;;;6124206;23;20692;-83
2022/05/20 02:57:40;;;;;;;85.00;22.73;;;18.10;99.90;;;;;;6124259;23;20583;-83
2022/05/20 03:05:36;;;;;;;86.20;23.83;;;18.10;99.90;;;;;;6124050;23;20763;-83
2022/05/20 03:08:02;;;;;;;80.13;20.70;;;18.10;99.90;;;;;;6124074;23;20783;-83
2022/05/20 03:10:28;;;;;;;81.60;21.50;;;18.10;99.90;;;;;;6097506;23;20385;-83
2022/05/20 03:13:02;;;;;;;82.00;20.73;;;18.10;99.90;;;;;;6124003;23;20143;-83
2022/05/20 03:15:28;;;;;;;90.93;23.10;;;18.10;99.90;;;;;;6124438;23;20389;-83
2022/05/20 03:17:54;;;;;;;83.17;19.10;;;18.10;99.90;;;;;;6098101;23;20723;-83
2022/05/20 03:20:25;;;;;;;82.60;20.53;;;18.10;99.90;;;;;;6119279;22;20206;-86
2022/05/20 03:23:02;;;;;;;85.13;21.73;;;18.10;99.90;;;;;;6123120;23;20218;-86
2022/05/20 03:25:55;;;;;;;81.60;18.83;;;18.10;99.90;;;;;;6123252;23;20929;-86
2022/05/20 03:28:21;;;;;;;87.47;22.20;;;18.10;99.90;;;;;;6094411;23;20394;-86
2022/05/20 03:30:46;;;;;;;82.20;19.60;;;18.10;99.90;;;;;;6097402;23;20402;-86
2022/05/20 03:33:12;;;;;;;82.40;19.83;;;18.00;99.90;;;;;;6097488;23;20154;-86
2022/05/20 03:35:54;;;;;;;81.77;21.60;;;18.00;99.90;;;;;;6123313;23;20200;-86
2022/05/20 03:38:23;;;;;;;87.70;19.10;;;18.00;99.90;;;;;;6123245;23;20224;-86
2022/05/20 03:40:49;;;;;;;82.17;18.03;;;18.00;99.90;;;;;;6123931;23;20454;-88
2022/05/20 03:43:14;;;;;;;86.97;20.87;;;18.10;99.90;;;;;;6123581;23;20403;-88
2022/05/20 03:45:42;;;;;;;89.07;26.20;;;18.10;99.90;;;;;;6124525;23;20140;-88
2022/05/20 03:48:08;;;;;;;86.13;22.17;;;18.00;99.90;;;;;;6099014;23;20162;-88
2022/05/20 03:50:38;;;;;;;84.17;21.17;;;18.00;99.90;;;;;;6097956;23;20436;-89
2022/05/20 03:53:06;;;;;;;81.90;19.33;;;17.90;99.90;;;;;;6098968;23;20433;-89
2022/05/20 03:55:35;;;;;;;83.77;20.33;;;18.00;99.90;;;;;;6124391;23;20732;-89
2022/05/20 03:58:03;;;;;;;85.77;19.80;;;17.90;99.90;;;;;;6097345;23;20419;-88
2022/05/20 04:01:56;;;;;;;85.60;19.67;;;17.80;99.90;;;;;;6123814;23;20477;-89
2022/05/20 04:03:25;;;;;;;85.40;19.47;;;17.70;99.90;;;;;;6123717;23;20390;-88
2022/05/20 04:05:51;;;;;;;81.47;20.37;;;17.60;99.90;;;;;;6099708;23;20374;-88
2022/05/20 04:08:22;;;;;;;84.60;22.47;;;17.50;99.90;;;;;;6124562;23;20696;-88
2022/05/20 04:10:48;;;;;;;85.07;21.37;;;17.50;99.90;;;;;;6124102;23;20728;-86
2022/05/20 04:13:17;;;;;;;94.43;29.40;;;17.50;99.90;;;;;;6096993;23;20382;-86
2022/05/20 04:15:43;;;;;;;89.27;28.80;;;17.40;99.90;;;;;;6097873;23;20162;-88
2022/05/20 04:18:08;;;;;;;86.03;21.67;;;17.50;99.90;;;;;;6124569;23;20367;-88
2022/05/20 04:20:40;;;;;;;87.07;22.80;;;17.70;99.90;;;;;;6124380;23;20370;-89
2022/05/20 04:23:17;;;;;;;88.27;21.57;;;17.70;99.90;;;;;;6124354;23;20214;-88
2022/05/20 04:26:30;;;;;;;86.20;21.47;;;17.70;99.90;;;;;;6098832;23;20379;-89
2022/05/20 04:28:55;;;;;;;94.30;23.87;;;17.80;99.90;;;;;;6123813;23;20367;-88
2022/05/20 04:31:23;;;;;;;85.97;20.07;;;17.80;99.90;;;;;;6098636;23;20403;-89
2022/05/20 04:33:54;;;;;;;88.40;21.30;;;17.80;99.90;;;;;;6124883;23;20194;-88
2022/05/20 04:36:20;;;;;;;86.47;21.37;;;17.90;99.90;;;;;;6099095;23;20807;-88
2022/05/20 04:39:08;;;;;;;82.17;17.40;;;18.00;99.90;;;;;;6122813;23;20359;-86
2022/05/20 04:48:02;;;;;;;89.77;21.97;;;18.00;99.90;;;;;;6122940;23;20382;-86
2022/05/20 04:50:48;;;;;;;89.30;20.27;;;17.90;99.90;;;;;;6123667;23;20364;-87
2022/05/20 04:56:58;;;;;;;;;;;;;;;;;;;;;
2022/05/20 04:59:27;;;;;;;89.63;21.77;;;18.10;99.90;;;;;;6124017;23;20838;-86
2022/05/20 05:02:18;;;;;;;96.67;23.00;;;18.10;99.90;;;;;;6123154;23;20386;-86
2022/05/20 05:05:44;;;;;;;95.07;22.30;;;18.10;99.90;;;;;;6095757;23;20477;-86
2022/05/20 05:08:19;;;;;;;88.13;20.90;;;18.20;99.90;;;;;;6096601;23;20379;-86
2022/05/20 05:11:36;;;;;;;89.23;21.77;;;18.30;99.90;;;;;;6122804;23;20358;-87
2022/05/20 05:13:49;;;;;;;94.07;23.43;;;18.40;99.90;;;;;;6100681;23;20379;-86
2022/05/20 05:16:27;;;;;;;88.47;23.47;;;18.40;99.90;;;;;;6096524;23;20388;-86
2022/05/20 05:19:35;;;;;;;90.70;22.77;;;18.40;99.90;;;;;;6122874;23;20362;-86
2022/05/20 05:29:22;;;;;;;96.30;26.80;;;18.70;99.90;;;;;;6005306;23;20383;-86
2022/05/20 05:31:51;;;;;;;88.93;26.97;;;18.80;99.90;;;;;;6092252;23;20764;-86
2022/05/20 05:34:19;;;;;;;98.87;29.30;;;18.90;99.90;;;;;;6067789;23;20463;-87
2022/05/20 05:36:59;;;;;;;96.10;28.37;;;18.90;99.90;;;;;;6093387;23;20376;-86
2022/05/20 05:39:29;;;;;;;92.47;26.97;;;18.90;99.90;;;;;;6068664;23;20375;-86
2022/05/20 05:42:00;;;;;;;104.70;28.27;;;19.00;99.90;;;;;;6067538;23;20403;-86
2022/05/20 05:44:36;;;;;;;90.47;24.43;;;19.00;99.90;;;;;;6093330;23;20784;-86
2022/05/20 05:47:07;;;;;;;90.07;23.80;;;19.00;99.90;;;;;;6093824;23;20663;-86
2022/05/20 05:49:43;;;;;;;90.20;25.03;;;19.10;99.90;;;;;;6067623;23;20446;-86
2022/05/20 05:52:12;;;;;;;97.40;23.57;;;19.10;99.90;;;;;;6067943;23;20399;-86
2022/05/20 05:54:40;;;;;;;96.20;23.70;;;19.10;99.90;;;;;;6067941;23;20459;-86
2022/05/20 05:57:19;;;;;;;91.80;24.93;;;19.20;99.90;;;;;;6067805;23;20470;-86
2022/05/20 05:59:47;;;;;;;98.37;24.07;;;19.30;99.90;;;;;;6093317;23;20725;-86
2022/05/20 06:02:28;;;;;;;94.00;24.20;;;19.20;99.90;;;;;;6067300;23;20396;-86
2022/05/20 06:05:06;;;;;;;90.30;22.40;;;19.20;99.90;;;;;;6093232;23;20411;-86
2022/05/20 06:07:41;;;;;;;94.33;27.80;;;19.10;99.90;;;;;;6093367;23;20383;-86
2022/05/20 06:10:10;;;;;;;91.00;27.93;;;19.10;99.90;;;;;;6067627;23;20428;-86
2022/05/20 06:13:16;;;;;;;93.03;29.80;;;19.30;99.90;;;;;;6067424;23;20402;-86
2022/05/20 06:15:44;;;;;;;92.53;25.87;;;19.50;99.90;;;;;;6103192;23;20382;-86
2022/05/20 06:18:19;;;;;;;95.30;28.33;;;19.60;99.90;;;;;;6068227;23;20450;-86
2022/05/20 06:24:16;;;;;;;93.57;27.60;;;19.50;99.90;;;;;;6124224;23;20489;-86
2022/05/20 06:27:09;;;;;;;97.97;28.73;;;19.60;99.90;;;;;;6149546;23;20398;-86
2022/05/20 06:29:54;;;;;;;103.43;28.93;;;19.50;99.90;;;;;;6098124;23;20383;-86
2022/05/20 06:33:01;;;;;;;;;;;;;;;;;;;;;
2022/05/20 06:41:19;;;;;;;99.10;30.70;;;19.60;99.90;;;;;;6123390;23;20447;-86
2022/05/20 06:44:03;;;;;;;92.90;25.87;;;19.50;99.90;;;;;;6122837;23;20529;-86
2022/05/20 06:46:41;;;;;;;95.80;26.37;;;19.50;99.90;;;;;;6124218;23;20359;-86
2022/05/20 06:49:07;;;;;;;95.77;26.07;;;19.50;99.90;;;;;;6123861;23;20346;-86
2022/05/20 06:51:50;;;;;;;97.07;28.47;;;19.60;99.90;;;;;;6123273;23;20462;-86
2022/05/20 06:54:34;;;;;;;95.77;29.13;;;19.60;99.90;;;;;;6124080;23;20152;-86
2022/05/20 06:57:00;;;;;;;98.43;30.43;;;19.70;99.90;;;;;;6098401;23;20383;-86
2022/05/20 07:02:08;;;;;;;98.73;29.80;;;19.60;99.90;;;;;;6123174;23;20182;-85
2022/05/20 07:05:03;;;;;;;;;;;;;;;;;;;;;
2022/05/20 07:11:53;;;;;;;99.40;30.93;;;19.50;99.90;;;;;;6059597;23;20386;-86
2022/05/20 07:14:35;;;;;;;94.67;29.73;;;19.50;99.90;;;;;;6097477;23;20384;-86
2022/05/20 07:17:07;;;;;;;100.67;31.43;;;19.40;99.90;;;;;;6099248;23;20845;-86
2022/05/20 07:26:19;;;;;;;;;;;;;;;;;;;;;
2022/05/20 07:29:23;;;;;;;97.77;25.30;;;19.80;99.90;;;;;;6125084;23;20443;-86
2022/05/20 07:31:52;;;;;;;98.20;27.53;;;20.00;99.90;;;;;;6111315;23;20402;-86
2022/05/20 07:34:54;;;;;;;97.40;27.80;;;20.10;99.90;;;;;;6098149;23;20870;-86
2022/05/20 07:37:37;;;;;;;93.30;28.23;;;20.20;99.90;;;;;;6097792;23;20436;-87
2022/05/20 07:40:35;;;;;;;95.23;29.03;;;20.30;99.90;;;;;;6096689;23;20437;-86
2022/05/20 07:43:39;;;;;;;;;;;;;;;;;;;;;
2022/05/20 07:46:20;;;;;;;100.07;30.80;;;20.50;99.90;;;;;;6119014;23;20367;-86
2022/05/20 07:49:00;;;;;;;98.20;31.30;;;20.70;99.90;;;;;;6097489;23;20371;-87
2022/05/20 07:52:06;;;;;;;94.20;29.67;;;20.80;99.90;;;;;;6093023;23;20476;-86
2022/05/20 07:55:02;;;;;;;97.47;23.20;;;20.80;99.90;;;;;;6098009;23;20367;-86
2022/05/20 07:57:37;;;;;;;99.07;25.37;;;21.00;99.90;;;;;;6099036;23;20376;-86
2022/05/20 08:00:37;;;;;;;96.40;24.80;;;21.20;99.90;;;;;;6125080;23;20397;-87
2022/05/20 08:03:04;;;;;;;101.63;26.20;;;21.00;99.90;;;;;;6097581;23;20386;-87
2022/05/20 08:06:08;;;;;;;97.87;27.80;;;21.00;99.90;;;;;;6123861;23;20446;-87
2022/05/20 08:08:37;;;;;;;99.03;32.10;;;21.00;99.90;;;;;;6097872;23;20382;-87
2022/05/20 08:11:34;;;;;;;98.23;26.37;;;21.20;99.90;;;;;;6098276;23;20410;-87
2022/05/20 08:14:55;;;;;;;98.07;23.10;;;21.70;99.90;;;;;;6097120;23;20878;-87
2022/05/20 08:18:17;;;;;;;;;;;;;;;;;;;;;
2022/05/20 08:21:10;;;;;;;93.90;25.60;;;22.00;99.90;;;;;;6180916;23;20487;-87
2022/05/20 08:23:44;;;;;;;98.33;25.97;;;21.90;99.90;;;;;;6130282;23;20389;-87
2022/05/20 08:26:27;;;;;;;93.37;25.03;;;21.80;99.90;;;;;;6131582;23;20444;-87
2022/05/20 08:28:55;;;;;;;103.60;26.63;;;21.80;99.90;;;;;;6130252;23;20370;-87
2022/05/20 08:31:25;;;;;;;94.53;24.80;;;21.90;99.90;;;;;;6126292;23;20480;-87
2022/05/20 08:33:52;;;;;;;96.40;25.27;;;21.90;99.90;;;;;;6154671;23;20684;-87
2022/05/20 08:36:34;;;;;;;95.50;26.13;;;22.10;99.90;;;;;;6154394;23;20715;-87
2022/05/20 08:39:15;;;;;;;90.80;21.20;;;22.20;99.90;;;;;;6131259;23;20746;-86
2022/05/20 08:41:46;;;;;;;95.80;22.57;;;22.20;99.90;;;;;;6130728;23;20494;-87
2022/05/20 08:44:43;;;;;;;;;;;;;;;;;;;;;
2022/05/20 08:47:34;;;;;;;88.53;20.80;;;22.10;99.90;;;;;;6094644;23;20439;-87
2022/05/20 08:51:01;;;;;;;86.57;19.00;;;22.00;99.90;;;;;;6069508;23;20379;-87
2022/05/20 08:54:21;;;;;;;92.03;19.47;;;22.00;99.90;;;;;;6083988;23;20708;-86
2022/05/20 08:57:18;;;;;;;89.03;18.07;;;22.10;99.90;;;;;;6084256;23;20474;-87
2022/05/20 08:59:51;;;;;;;91.87;19.20;;;22.00;99.90;;;;;;6093723;23;20755;-86
2022/05/20 09:02:26;;;;;;;84.17;18.03;;;22.10;99.90;;;;;;6067935;23;20777;-86
2022/05/20 09:05:00;;;;;;;86.43;17.37;;;22.10;99.90;;;;;;6093845;23;20417;-86
2022/05/20 09:07:26;;;;;;;88.83;17.70;;;22.00;99.90;;;;;;6068514;23;20383;-86
2022/05/20 09:10:20;;;;;;;86.83;17.43;;;22.20;99.90;;;;;;6068711;23;20911;-87
2022/05/20 09:12:47;;;;;;;89.53;17.97;;;22.10;99.90;;;;;;6108915;23;20399;-86
2022/05/20 09:16:12;;;;;;;84.27;15.90;;;22.20;99.90;;;;;;6067973;23;20466;-86
2022/05/20 09:18:41;;;;;;;82.37;15.77;;;22.50;99.90;;;;;;6090143;23;20756;-86
2022/05/20 09:21:14;;;;;;;85.20;16.30;;;22.50;99.90;;;;;;6125452;23;20403;-87
2022/05/20 09:23:56;;;;;;;86.10;16.33;;;22.50;99.90;;;;;;6123618;22;20677;-86
2022/05/20 09:26:30;;;;;;;82.97;17.60;;;22.80;99.90;;;;;;6121955;23;20470;-88
2022/05/20 09:29:07;;;;;;;85.23;16.57;;;23.10;99.90;;;;;;6124613;23;20355;-88
2022/05/20 09:31:40;;;;;;;85.57;16.13;;;23.40;99.90;;;;;;6123600;23;20394;-88
2022/05/20 09:34:26;;;;;;;89.10;19.30;;;23.40;99.90;;;;;;6122054;23;20379;-88
2022/05/20 09:37:18;;;;;;;84.13;17.60;;;23.50;99.90;;;;;;6124141;23;20405;-88
2022/05/20 09:39:49;;;;;;;82.30;15.77;;;23.40;99.90;;;;;;6123464;23;20435;-88
2022/05/20 09:42:24;;;;;;;82.33;17.20;;;23.40;99.90;;;;;;6123973;22;20447;-87
2022/05/20 09:44:59;;;;;;;85.23;18.00;;;23.50;99.90;;;;;;6123200;23;20421;-87
2022/05/20 09:47:32;;;;;;;83.27;18.37;;;23.50;99.90;;;;;;6124065;23;20370;-87
2022/05/20 09:50:14;;;;;;;82.63;18.23;;;23.70;99.90;;;;;;6124907;23;20378;-85
2022/05/20 09:52:53;;;;;;;80.07;15.33;;;23.70;99.90;;;;;;6127332;23;20391;-86
2022/05/20 09:55:26;;;;;;;81.00;17.90;;;23.70;99.90;;;;;;6127077;23;20703;-87
2022/05/20 09:58:09;;;;;;;79.17;16.97;;;23.80;99.90;;;;;;6125205;23;20387;-87
2022/05/20 10:00:40;;;;;;;80.07;15.37;;;23.90;99.90;;;;;;6124631;23;20349;-86
2022/05/20 10:03:28;;;;;;;79.50;13.13;;;24.10;99.90;;;;;;6126500;23;20347;-86
2022/05/20 10:06:30;;;;;;;77.07;12.73;;;24.20;99.90;;;;;;6123187;23;20383;-89
2022/05/20 10:09:32;;;;;;;78.37;12.50;;;24.40;99.90;;;;;;6124990;23;20398;-86
2022/05/20 10:12:04;;;;;;;75.97;11.97;;;24.40;99.90;;;;;;6093303;23;20400;-86
2022/05/20 10:14:42;;;;;;;73.57;10.97;;;24.50;99.90;;;;;;6114959;23;20857;-86
2022/05/20 10:17:17;;;;;;;76.50;11.30;;;24.70;99.90;;;;;;6126384;23;20368;-86
2022/05/20 10:20:01;;;;;;;77.70;12.60;;;25.00;99.90;;;;;;6130113;23;20387;-87
2022/05/20 10:22:45;;;;;;;73.50;9.93;;;24.90;99.90;;;;;;6126942;23;20400;-86
2022/05/20 10:25:41;;;;;;;73.70;10.00;;;25.30;99.90;;;;;;6126428;23;20409;-86
2022/05/20 10:34:11;;;;;;;73.17;10.20;;;25.00;99.90;;;;;;6126262;23;20358;-85
2022/05/20 10:37:21;;;;;;;73.73;8.97;;;25.50;99.90;;;;;;6125891;23;20378;-85
2022/05/20 10:40:13;;;;;;;72.47;8.27;;;25.90;99.90;;;;;;6034545;23;20373;-85
2022/05/20 10:43:03;;;;;;;75.80;10.93;;;26.40;98.20;;;;;;6037366;23;20389;-85
2022/05/20 10:49:12;;;;;;;71.27;8.10;;;26.20;94.80;;;;;;6124845;23;20700;-86
2022/05/20 10:51:50;;;;;;;73.50;9.00;;;26.00;94.60;;;;;;6126364;23;20385;-86
2022/05/20 10:54:16;;;;;;;71.67;9.27;;;25.90;97.60;;;;;;6123643;23;20375;-85
2022/05/20 10:57:27;;;;;;;71.60;9.80;;;26.00;93.40;;;;;;6127088;23;20765;-86
2022/05/20 11:00:15;;;;;;;72.47;9.07;;;25.60;95.80;;;;;;6116830;23;20488;-86
2022/05/20 11:02:59;;;;;;;72.03;9.23;;;25.70;99.90;;;;;;6124267;23;20398;-86
2022/05/20 11:06:03;;;;;;;71.87;10.33;;;25.70;99.90;;;;;;6128162;23;20405;-86
2022/05/20 11:08:39;;;;;;;70.80;8.40;;;25.50;99.90;;;;;;6126610;22;20363;-86
2022/05/20 11:11:17;;;;;;;71.63;8.23;;;25.80;99.90;;;;;;6126842;23;20417;-86
2022/05/20 11:13:52;;;;;;;72.27;8.17;;;26.10;99.90;;;;;;6126036;23;20374;-86
2022/05/20 11:16:50;;;;;;;70.33;8.17;;;26.50;96.30;;;;;;6128032;23;20400;-86
2022/05/20 11:19:43;;;;;;;71.33;7.80;;;26.60;88.40;;;;;;6127845;23;20672;-86
2022/05/20 11:22:39;;;;;;;71.23;8.67;;;26.70;92.00;;;;;;6086469;23;20391;-86
2022/05/20 11:25:24;;;;;;;72.60;8.67;;;26.40;91.60;;;;;;6128848;23;20736;-86
2022/05/20 11:28:04;;;;;;;73.07;10.10;;;26.40;93.80;;;;;;6128743;23;20485;-86
2022/05/20 11:30:48;;;;;;;72.37;9.67;;;26.40;83.80;;;;;;6128507;23;20371;-85
2022/05/20 11:33:26;;;;;;;69.77;8.43;;;26.10;91.90;;;;;;6129122;23;20352;-86
2022/05/20 11:36:03;;;;;;;71.50;9.83;;;25.90;98.80;;;;;;6128733;23;20351;-85
2022/05/20 11:38:57;;;;;;;72.03;9.07;;;25.90;97.50;;;;;;6128751;23;20354;-85
2022/05/20 11:42:04;;;;;;;70.90;8.27;;;25.90;97.40;;;;;;6128997;23;20418;-88
2022/05/20 11:44:39;;;;;;;73.00;8.80;;;25.80;98.80;;;;;;6129867;23;20414;-86
2022/05/20 11:47:26;;;;;;;72.67;10.33;;;25.90;99.10;;;;;;6128636;23;20370;-85
2022/05/20 11:50:18;;;;;;;70.63;8.60;;;26.00;98.40;;;;;;6129987;23;20359;-87
2022/05/20 11:53:10;;;;;;;70.10;9.07;;;25.90;98.70;;;;;;6117355;23;20399;-88
2022/05/20 11:55:42;;;;;;;69.30;9.13;;;25.60;97.60;;;;;;6129016;23;20386;-85
2022/05/20 11:58:18;;;;;;;70.30;8.90;;;25.50;99.90;;;;;;6131294;22;20695;-85
2022/05/20 12:00:52;;;;;;;70.90;8.97;;;25.30;99.90;;;;;;6157191;23;20382;-85
2022/05/20 12:03:27;;;;;;;69.50;9.20;;;25.20;99.90;;;;;;6128203;23;20870;-88
2022/05/20 12:06:40;;;;;;;69.37;8.37;;;25.10;99.90;;;;;;6130093;23;20893;-86
2022/05/20 12:08:50;;;;;;;68.60;7.83;;;25.30;99.90;;;;;;6122332;23;20689;-86
2022/05/20 12:11:29;;;;;;;70.77;8.30;;;25.20;99.90;;;;;;6129057;23;20732;-86
2022/05/20 12:14:19;;;;;;;69.07;8.83;;;25.20;99.90;;;;;;6128944;23;20384;-86
2022/05/20 12:17:01;;;;;;;72.47;8.83;;;25.10;99.90;;;;;;6131839;23;20408;-86
2022/05/20 12:25:34;;;;;;;71.00;10.57;;;24.60;99.90;;;;;;6129952;23;20411;-87
2022/05/20 12:28:22;;;;;;;72.10;12.30;;;24.30;99.90;;;;;;6127276;23;20400;-86
2022/05/20 12:31:03;;;;;;;74.33;15.60;;;24.20;99.90;;;;;;6125489;23;20448;-86
2022/05/20 12:34:05;;;;;;;73.60;15.27;;;24.00;99.90;;;;;;6123827;23;20692;-87
2022/05/20 12:36:42;;;;;;;76.23;14.20;;;23.70;99.90;;;;;;6123433;23;20368;-86
2022/05/20 12:39:11;;;;;;;73.73;14.53;;;23.70;99.90;;;;;;6123798;23;20457;-86
2022/05/20 12:41:45;;;;;;;72.30;14.80;;;23.70;99.90;;;;;;6127117;23;20413;-86
2022/05/20 12:44:16;;;;;;;73.90;16.37;;;23.70;99.90;;;;;;6125504;23;20415;-86
2022/05/20 12:47:19;;;;;;;72.43;15.80;;;23.80;99.90;;;;;;6127407;23;20370;-87
2022/05/20 12:50:05;;;;;;;73.77;15.37;;;23.70;99.90;;;;;;6127799;23;20363;-87
2022/05/20 12:52:34;;;;;;;72.63;13.63;;;23.70;99.90;;;;;;6128353;23;20692;-86
2022/05/20 12:55:18;;;;;;;72.20;13.43;;;23.50;99.90;;;;;;6127571;23;20843;-87
2022/05/20 12:57:50;;;;;;;70.33;13.90;;;23.30;99.90;;;;;;6128077;23;20410;-87
2022/05/20 13:00:23;;;;;;;72.90;17.03;;;23.20;99.90;;;;;;6128938;23;20851;-86
2022/05/20 13:02:54;;;;;;;68.57;11.97;;;23.20;99.90;;;;;;6128753;23;20390;-85
2022/05/20 13:05:32;;;;;;;67.90;9.73;;;23.30;99.90;;;;;;6127491;23;20508;-86
2022/05/20 13:08:00;;;;;;;68.13;9.40;;;23.40;99.90;;;;;;6126301;23;20375;-87
2022/05/20 13:10:39;;;;;;;70.30;9.70;;;23.50;99.90;;;;;;6127601;23;20371;-86
2022/05/20 13:13:12;;;;;;;71.57;8.80;;;23.50;99.90;;;;;;6128040;23;20351;-86
2022/05/20 13:15:49;;;;;;;67.87;10.77;;;23.60;99.90;;;;;;6124563;23;20649;-87
2022/05/20 13:18:26;;;;;;;67.73;10.87;;;23.80;99.90;;;;;;6121999;23;20382;-87
2022/05/20 13:20:59;;;;;;;68.03;10.77;;;24.20;99.90;;;;;;6126113;23;20410;-86
2022/05/20 13:23:37;;;;;;;66.80;8.17;;;24.50;99.90;;;;;;6127365;23;20365;-86
2022/05/20 13:26:05;;;;;;;67.60;8.97;;;24.70;99.90;;;;;;6126223;23;20356;-86
2022/05/20 13:28:34;;;;;;;70.63;10.27;;;24.80;99.90;;;;;;6149453;23;20437;-86
2022/05/20 13:31:08;;;;;;;69.97;12.43;;;24.90;99.90;;;;;;6125625;23;20771;-87
2022/05/20 13:33:37;;;;;;;69.63;13.87;;;25.10;99.90;;;;;;6125006;23;20731;-86
2022/05/20 13:36:05;;;;;;;76.37;21.53;;;25.20;99.90;;;;;;6125446;23;20394;-86
2022/05/20 13:38:40;;;;;;;74.60;22.60;;;25.50;99.90;;;;;;6122007;23;20377;-86
2022/05/20 13:41:07;;;;;;;74.80;9.43;;;25.70;99.90;;;;;;6126477;22;20412;-87
2022/05/20 13:43:36;;;;;;;67.47;6.50;;;25.90;99.90;;;;;;6124742;23;20444;-86
2022/05/20 13:49:13;;;;;;;68.70;5.17;;;25.60;99.90;;;;;;6125017;23;20358;-86
2022/05/20 13:51:51;;;;;;;64.77;5.37;;;25.40;99.90;;;;;;6124087;23;20414;-87
2022/05/20 13:54:33;;;;;;;65.77;5.30;;;25.30;99.90;;;;;;6125509;23;20376;-86
2022/05/20 13:57:01;;;;;;;66.23;5.13;;;25.30;99.90;;;;;;6124211;23;20479;-87
2022/05/20 13:59:37;;;;;;;66.47;6.27;;;25.00;99.90;;;;;;6122921;23;20420;-86
2022/05/20 14:02:09;;;;;;;67.40;6.50;;;24.80;99.90;;;;;;6122898;23;20454;-87
2022/05/20 14:04:44;;;;;;;66.87;6.03;;;24.70;99.90;;;;;;6123130;23;20794;-87
2022/05/20 14:07:35;;;;;;;66.50;5.40;;;24.60;99.90;;;;;;6125104;22;20407;-87
2022/05/20 14:10:12;;;;;;;65.90;6.60;;;24.50;99.90;;;;;;6122936;23;20384;-86
2022/05/20 14:13:06;;;;;;;67.80;6.90;;;24.40;99.90;;;;;;6123657;23;20388;-86
2022/05/20 14:15:49;;;;;;;68.50;10.00;;;24.40;99.90;;;;;;6124220;23;20391;-87
2022/05/20 14:18:32;;;;;;;69.53;10.30;;;24.40;99.90;;;;;;6124282;23;20383;-87
2022/05/20 14:21:18;;;;;;;70.10;10.17;;;24.40;99.90;;;;;;6123569;23;20426;-86
2022/05/20 14:23:56;;;;;;;67.03;9.13;;;24.40;99.90;;;;;;6125583;22;20356;-87
2022/05/20 14:26:36;;;;;;;66.50;8.33;;;24.30;99.90;;;;;;6148639;23;20418;-86
2022/05/20 14:29:42;;;;;;;66.90;7.77;;;24.20;99.90;;;;;;6125030;23;20704;-86
2022/05/20 14:32:13;;;;;;;66.87;7.20;;;24.20;99.90;;;;;;6037430;23;20404;-86
2022/05/20 14:34:50;;;;;;;65.87;7.10;;;24.20;99.90;;;;;;6015034;23;20376;-86